Russell, Ohio
Current Conditions -  °F | °C
As of 9:45 PM on Tuesday 21 Oct 2014 (Local Time) from KCGF Reporting Station
Light Rain Light Rain  
Wind Chill: 42°   Ceiling: 600
Heat Index: 48°   Visibility: 3mi
Dew Point: 48°   Wind: 15mph
Humidity: 100%   Direction: 30°NNE
Pressure: 30.1"   Gusts: NA
Location:  41.4688°N, 81.3252°W
Report Text: KCGF 220145Z 03013KT 3SM -RA BR OVC006 09/09 A3010
Loading
Personal Weather Stations






























Interactive Weather Map
Tropical Storm Tracking
New forecast layout! Learn more

10-Day Weather Forecast

Advertisements
Track Severe Weather on mobile